Time;durP1;ratioP1;P1;durP2;ratioP2;P2;SDS_P1;SDS_P2;PMS_P1;PMS_P2;Temp;Humidity;BMP_temperature;BMP_pressure;BME280_temperature;BME280_humidity;BME280_pressure;Samples;Min_cycle;Max_cycle;Signal;HPM_P1;HPM_P2
2022/08/06 00:01:13;;;;;;;4.72;3.00;;;;;;;23.78;43.86;98437.47;4485386;32;20063;-71
2022/08/06 00:03:41;;;;;;;5.07;3.03;;;;;;;23.73;44.16;98437.34;4485575;32;20135;-71
2022/08/06 00:06:08;;;;;;;13.02;3.55;;;;;;;23.78;43.69;98440.16;4485398;31;20100;-71
2022/08/06 00:08:35;;;;;;;10.82;3.78;;;;;;;23.79;43.26;98436.44;4485411;32;20179;-71
2022/08/06 00:11:03;;;;;;;5.47;3.00;;;;;;;23.88;42.84;98439.63;4485409;32;20123;-71
2022/08/06 00:13:30;;;;;;;4.68;3.35;;;;;;;23.88;43.14;98444.97;4485393;31;20100;-71
2022/08/06 00:16:01;;;;;;;4.45;3.33;;;;;;;23.79;43.66;98443.66;4485359;32;20099;-71
2022/08/06 00:18:48;;;;;;;5.32;3.92;;;;;;;23.73;44.02;98448.88;4485305;32;20096;-71
2022/08/06 00:21:15;;;;;;;7.80;3.87;;;;;;;23.65;44.24;98449.22;4485375;31;20153;-71
2022/08/06 00:24:03;;;;;;;5.72;4.28;;;;;;;23.65;44.72;98443.03;4485304;31;20112;-71
2022/08/06 00:26:38;;;;;;;6.85;3.70;;;;;;;23.62;44.60;98446.16;4485465;31;20149;-71
2022/08/06 00:29:17;;;;;;;6.05;3.70;;;;;;;23.60;44.35;98443.72;4485203;31;20165;-71
2022/08/06 00:32:05;;;;;;;8.20;4.03;;;;;;;23.59;44.20;98442.12;4485133;31;20072;-71
2022/08/06 00:34:38;;;;;;;8.68;3.28;;;;;;;23.62;44.05;98438.97;4485332;32;20480;-71
2022/08/06 00:37:06;;;;;;;7.53;3.87;;;;;;;23.67;43.28;98448.97;4485021;32;20096;-71
2022/08/06 00:39:45;;;;;;;5.05;3.22;;;;;;;23.63;43.22;98439.78;4485283;32;20122;-71
2022/08/06 00:42:12;;;;;;;9.90;5.05;;;;;;;23.60;43.46;98445.59;4485424;31;20084;-71
2022/08/06 00:44:43;;;;;;;6.95;3.35;;;;;;;23.63;43.42;98442.47;4484671;31;20770;-71
2022/08/06 00:47:14;;;;;;;7.22;3.08;;;;;;;23.84;42.62;98443.75;4485278;31;20111;-71
2022/08/06 00:50:02;;;;;;;3.25;2.90;;;;;;;23.81;42.57;98439.69;4485270;31;20069;-71
2022/08/06 00:52:32;;;;;;;6.12;2.92;;;;;;;23.88;42.66;98443.09;4485260;32;20088;-71
2022/08/06 00:55:01;;;;;;;7.28;3.72;;;;;;;23.88;42.54;98437.75;4485101;31;20143;-71
2022/08/06 00:57:43;;;;;;;6.53;3.37;;;;;;;23.84;42.58;98433.88;4485080;31;20449;-71
2022/08/06 01:00:10;;;;;;;7.15;3.58;;;;;;;23.82;42.47;98446.66;4484980;31;20123;-71
2022/08/06 01:02:56;;;;;;;4.95;3.62;;;;;;;23.85;42.57;98443.56;4485073;31;20081;-71
2022/08/06 01:05:24;;;;;;;4.43;3.62;;;;;;;23.78;42.54;98428.63;4484993;31;20347;-71
2022/08/06 01:08:12;;;;;;;6.10;3.42;;;;;;;23.85;42.43;98432.06;4485013;31;20080;-71
2022/08/06 01:10:40;;;;;;;5.80;3.65;;;;;;;23.83;42.33;98424.22;4485056;31;20134;-71
2022/08/06 01:13:09;;;;;;;6.68;4.10;;;;;;;23.87;42.83;98428.09;4484881;31;20111;-71
2022/08/06 01:16:09;;;;;;;6.57;4.17;;;;;;;23.82;42.07;98427.12;4485304;31;20097;-71
2022/08/06 01:19:15;;;;;;;6.47;3.47;;;;;;;23.76;42.67;98423.53;4484894;31;20103;-71
2022/08/06 01:22:22;;;;;;;6.72;4.07;;;;;;;23.65;43.93;98424.31;4485155;31;20442;-71
2022/08/06 01:25:17;;;;;;;5.18;3.90;;;;;;;23.53;44.16;98427.00;4484934;31;20081;-71
2022/08/06 01:27:58;;;;;;;7.18;4.07;;;;;;;23.41;44.96;98424.28;4484820;32;20100;-71
2022/08/06 01:30:30;;;;;;;4.53;3.72;;;;;;;23.47;43.40;98425.25;4483306;32;20138;-71
2022/08/06 01:33:07;;;;;;;4.37;3.97;;;;;;;23.39;44.17;98421.00;4483694;32;20534;-71
2022/08/06 01:35:44;;;;;;;8.57;4.18;;;;;;;23.33;44.53;98424.59;4483633;32;20509;-71
2022/08/06 01:38:29;;;;;;;5.78;3.65;;;;;;;23.24;45.79;98424.13;4483451;32;20209;-71
2022/08/06 01:40:58;;;;;;;5.97;4.10;;;;;;;23.17;46.30;98426.06;4483628;32;20101;-71
2022/08/06 01:43:26;;;;;;;5.57;4.00;;;;;;;23.05;47.08;98426.00;4483504;32;20224;-71
2022/08/06 01:46:14;;;;;;;6.87;3.90;;;;;;;22.97;47.66;98426.31;4484557;31;20083;-71
2022/08/06 01:48:43;;;;;;;6.55;4.03;;;;;;;22.88;47.85;98428.50;4483443;32;20367;-71
2022/08/06 01:51:11;;;;;;;5.87;3.85;;;;;;;22.78;48.64;98426.34;4484626;31;20080;-71
2022/08/06 01:54:01;;;;;;;4.75;3.70;;;;;;;22.67;48.42;98425.25;4484858;31;20154;-71
2022/08/06 01:56:36;;;;;;;4.90;3.83;;;;;;;22.64;47.64;98425.69;4484524;31;20343;-71
2022/08/06 01:59:35;;;;;;;10.38;3.95;;;;;;;22.60;47.76;98429.03;4483354;32;20117;-71
2022/08/06 02:02:05;;;;;;;7.25;3.80;;;;;;;22.55;48.23;98426.22;4483062;32;20163;-71
2022/08/06 02:04:38;;;;;;;5.90;3.95;;;;;;;22.45;48.42;98427.56;4483340;32;20471;-71
2022/08/06 02:07:08;;;;;;;5.37;4.07;;;;;;;22.37;48.57;98424.38;4468769;32;20438;-71
2022/08/06 02:09:57;;;;;;;5.60;3.95;;;;;;;22.27;48.76;98427.50;4467631;32;20081;-71
2022/08/06 02:12:25;;;;;;;5.32;4.22;;;;;;;22.25;48.94;98427.72;4467430;32;20096;-71
2022/08/06 02:14:56;;;;;;;6.12;4.15;;;;;;;22.26;48.68;98429.38;4467308;32;20081;-71
2022/08/06 02:17:27;;;;;;;7.10;4.12;;;;;;;22.15;49.43;98428.25;4468951;32;20371;-71
2022/08/06 02:20:16;;;;;;;4.25;3.85;;;;;;;22.07;49.65;98423.19;4468536;32;20084;-71
2022/08/06 02:23:03;;;;;;;4.62;3.87;;;;;;;21.98;49.67;98429.84;4456395;32;20097;-71
2022/08/06 02:25:31;;;;;;;5.97;4.03;;;;;;;21.99;49.40;98428.81;4454199;32;20462;-71
2022/08/06 02:28:03;;;;;;;9.93;4.87;;;;;;;22.03;48.79;98430.03;4468572;32;20124;-71
2022/08/06 02:30:37;;;;;;;5.07;4.03;;;;;;;22.01;49.87;98423.25;4468070;32;20528;-71
2022/08/06 02:33:10;;;;;;;6.22;3.80;;;;;;;21.92;49.85;98425.38;4467076;32;20096;-70
2022/08/06 02:35:52;;;;;;;4.28;3.87;;;;;;;21.83;50.34;98421.38;4455385;32;20438;-70
2022/08/06 02:38:36;;;;;;;5.00;4.45;;;;;;;21.71;50.27;98427.44;4467046;32;20557;-71
2022/08/06 02:41:23;;;;;;;5.50;4.30;;;;;;;21.82;48.94;98428.56;4467155;32;20088;-70
2022/08/06 02:43:59;;;;;;;6.60;4.53;;;;;;;21.95;49.28;98428.44;4467085;32;20559;-71
2022/08/06 02:46:31;;;;;;;6.10;4.35;;;;;;;21.88;50.00;98429.56;4468207;32;20491;-71
2022/08/06 02:49:04;;;;;;;4.87;4.10;;;;;;;21.85;50.10;98427.28;4468390;32;20134;-70
2022/08/06 02:51:42;;;;;;;8.27;3.97;;;;;;;21.74;50.20;98416.31;4466930;32;20117;-71
2022/08/06 02:54:38;;;;;;;4.70;4.05;;;;;;;21.77;50.57;98425.72;4468098;32;20093;-71
2022/08/06 02:57:17;;;;;;;6.95;3.95;;;;;;;21.81;50.80;98421.59;4468022;32;20084;-71
2022/08/06 02:59:47;;;;;;;9.07;4.68;;;;;;;21.85;51.02;98416.63;4467858;32;20107;-71
2022/08/06 03:02:23;;;;;;;4.72;4.07;;;;;;;21.91;51.07;98419.25;4466507;32;20386;-71
2022/08/06 03:04:53;;;;;;;6.72;4.10;;;;;;;21.95;51.03;98422.28;4466979;32;20142;-71
2022/08/06 03:07:27;;;;;;;5.43;4.18;;;;;;;21.95;51.35;98419.62;4482314;32;20096;-71
2022/08/06 03:09:58;;;;;;;7.37;4.40;;;;;;;21.91;51.43;98421.09;4484302;32;20394;-71
2022/08/06 03:12:25;;;;;;;9.15;4.62;;;;;;;21.82;51.86;98423.22;4484519;32;20540;-71
2022/08/06 03:14:59;;;;;;;5.60;4.57;;;;;;;21.75;52.12;98423.28;4485814;32;20155;-71
2022/08/06 03:17:37;;;;;;;6.12;4.30;;;;;;;21.69;52.24;98426.00;4485753;31;20171;-71
2022/08/06 03:20:06;;;;;;;6.10;4.43;;;;;;;21.66;52.51;98429.91;4484566;32;20103;-71
2022/08/06 03:22:36;;;;;;;7.32;4.45;;;;;;;21.61;52.70;98430.56;4484493;32;20400;-71
2022/08/06 03:25:12;;;;;;;6.50;4.57;;;;;;;21.69;52.42;98432.16;4484616;32;20096;-71
2022/08/06 03:27:41;;;;;;;10.43;4.18;;;;;;;21.75;52.41;98439.25;4484397;32;20088;-71
2022/08/06 03:30:13;;;;;;;7.53;4.47;;;;;;;21.84;52.15;98431.00;4484329;32;20080;-71
2022/08/06 03:33:04;;;;;;;5.37;4.22;;;;;;;21.88;52.02;98432.22;4485674;31;20081;-71
2022/08/06 03:35:50;;;;;;;7.25;5.43;;;;;;;21.87;51.94;98438.56;4485838;31;20448;-70
2022/08/06 03:38:21;;;;;;;9.23;4.70;;;;;;;21.77;52.50;98423.06;4484346;32;20156;-71
2022/08/06 03:40:57;;;;;;;9.13;4.15;;;;;;;21.71;52.64;98435.44;4484492;32;20125;-70
2022/08/06 03:43:24;;;;;;;7.72;4.30;;;;;;;21.71;52.46;98434.59;4484365;32;20096;-70
2022/08/06 03:46:00;;;;;;;4.43;4.03;;;;;;;21.78;52.00;98430.84;4484669;32;20108;-70
2022/08/06 03:48:32;;;;;;;5.95;4.32;;;;;;;21.84;51.97;98431.00;4484569;32;20192;-71
2022/08/06 03:51:17;;;;;;;6.18;4.20;;;;;;;21.77;52.70;98434.56;4484595;32;20115;-70
2022/08/06 03:54:06;;;;;;;5.60;4.90;;;;;;;21.67;52.52;98434.22;4484834;32;20413;-70
2022/08/06 03:56:36;;;;;;;5.80;4.20;;;;;;;21.78;52.04;98438.84;4485710;32;20096;-71
2022/08/06 03:59:05;;;;;;;5.10;3.83;;;;;;;21.86;52.23;98428.94;4484406;32;20076;-70
2022/08/06 04:01:37;;;;;;;6.05;4.05;;;;;;;21.86;52.59;98426.25;4483993;32;20437;-70
2022/08/06 04:04:18;;;;;;;5.03;3.78;;;;;;;21.90;51.90;98432.81;4484480;32;20099;-70
2022/08/06 04:06:55;;;;;;;6.43;4.15;;;;;;;21.99;51.98;98442.16;4485489;31;20097;-71
2022/08/06 04:09:25;;;;;;;8.60;4.37;;;;;;;21.98;51.80;98448.50;4485458;31;20099;-71
2022/08/06 04:12:12;;;;;;;4.72;4.15;;;;;;;22.02;52.21;98438.25;4484424;32;20111;-71
2022/08/06 04:15:00;;;;;;;4.90;4.03;;;;;;;22.25;50.55;98453.59;4484401;32;20123;-71
2022/08/06 04:17:36;;;;;;;6.15;4.15;;;;;;;22.27;50.98;98454.19;4484187;32;20084;-70
2022/08/06 04:20:09;;;;;;;5.68;3.50;;;;;;;22.36;50.14;98454.75;4484329;32;20092;-70
2022/08/06 04:22:36;;;;;;;7.97;3.92;;;;;;;22.56;49.56;98452.69;4484056;32;20107;-71
2022/08/06 04:25:25;;;;;;;6.55;3.45;;;;;;;22.66;49.73;98455.66;4484298;32;20120;-71
2022/08/06 04:27:52;;;;;;;5.78;3.72;;;;;;;22.81;49.29;98459.81;4484231;32;20122;-70
2022/08/06 04:30:23;;;;;;;4.97;3.83;;;;;;;23.00;48.98;98458.75;4485069;31;20084;-71
2022/08/06 04:32:52;;;;;;;4.82;3.65;;;;;;;23.16;48.29;98464.53;4484290;32;20141;-71
2022/08/06 04:35:29;;;;;;;6.32;3.70;;;;;;;23.30;47.81;98465.16;4485370;31;20131;-71
2022/08/06 04:38:22;;;;;;;7.07;3.60;;;;;;;23.50;48.49;98459.53;4485282;32;20084;-71
2022/08/06 04:40:56;;;;;;;8.45;3.87;;;;;;;23.67;47.22;98465.84;4485335;31;20073;-71
2022/08/06 04:43:24;;;;;;;6.62;3.92;;;;;;;23.85;48.03;98464.97;4485246;32;20088;-71
2022/08/06 04:46:11;;;;;;;6.18;4.40;;;;;;;24.00;48.82;98479.75;4484300;32;20100;-71
2022/08/06 04:48:44;;;;;;;5.32;3.65;;;;;;;24.03;49.57;98487.34;4484092;32;20099;-71
2022/08/06 04:51:14;;;;;;;4.60;3.60;;;;;;;24.17;47.83;98488.72;4485211;31;20135;-71
2022/08/06 04:54:04;;;;;;;7.12;3.70;;;;;;;24.25;46.17;98484.87;4485297;31;20107;-71
2022/08/06 04:56:33;;;;;;;6.97;3.72;;;;;;;24.26;45.88;98484.63;4485510;31;20077;-71
2022/08/06 04:59:05;;;;;;;8.10;3.70;;;;;;;24.32;45.80;98477.53;4485268;31;20102;-71
2022/08/06 05:01:34;;;;;;;4.62;4.18;;;;;;;24.33;45.91;98473.00;4484741;31;20161;-71
2022/08/06 05:04:20;;;;;;;4.18;3.75;;;;;;;24.47;44.87;98486.94;4485169;31;20523;-71
2022/08/06 05:07:18;;;;;;;4.93;3.92;;;;;;;24.54;45.04;98493.84;4485072;31;20172;-71
2022/08/06 05:09:49;;;;;;;5.72;3.40;;;;;;;24.69;45.72;98493.34;4483988;32;20104;-71
2022/08/06 05:12:35;;;;;;;8.48;4.10;;;;;;;24.85;45.83;98486.47;4485024;31;20084;-71
2022/08/06 05:15:20;;;;;;;4.93;3.47;;;;;;;24.99;46.77;98495.03;4485305;31;20103;-71
2022/08/06 05:18:16;;;;;;;9.70;4.12;;;;;;;24.95;46.22;98492.03;4484029;32;20467;-71
2022/08/06 05:21:04;;;;;;;4.80;3.78;;;;;;;25.10;44.87;98493.38;4485054;31;20080;-71
2022/08/06 05:23:46;;;;;;;4.85;3.92;;;;;;;25.09;42.85;98499.81;4483772;32;20084;-71
2022/08/06 05:26:14;;;;;;;8.40;4.05;;;;;;;25.11;42.79;98506.53;4483752;32;20170;-71
2022/08/06 05:28:52;;;;;;;5.18;3.85;;;;;;;25.09;43.68;98505.97;4483909;32;20097;-71
2022/08/06 05:31:34;;;;;;;8.40;3.78;;;;;;;25.08;44.97;98516.94;4484017;32;20386;-71
2022/08/06 05:34:07;;;;;;;5.00;4.32;;;;;;;25.04;47.63;98515.75;4484882;31;20530;-71
2022/08/06 05:36:34;;;;;;;9.20;4.37;;;;;;;24.91;50.00;98514.97;4483558;32;20567;-71
2022/08/06 05:39:01;;;;;;;7.62;4.97;;;;;;;24.92;51.42;98519.31;4484772;31;20107;-71
2022/08/06 05:41:30;;;;;;;13.50;4.43;;;;;;;24.98;52.26;98515.66;4484758;32;20551;-71
2022/08/06 05:44:04;;;;;;;5.05;4.55;;;;;;;24.97;53.11;98518.59;4484888;31;20164;-71
2022/08/06 05:46:45;;;;;;;9.38;4.68;;;;;;;25.03;53.35;98514.97;4484542;31;20436;-71
2022/08/06 05:49:15;;;;;;;8.10;4.53;;;;;;;25.07;53.73;98513.44;4484850;32;20081;-71
2022/08/06 05:52:13;;;;;;;7.57;4.72;;;;;;;25.01;54.54;98517.03;4483538;32;20096;-71
2022/08/06 05:55:21;;;;;;;7.25;4.72;;;;;;;25.07;54.67;98512.59;4484643;32;20085;-70
2022/08/06 05:58:07;;;;;;;5.82;4.87;;;;;;;25.14;54.74;98505.25;4484586;31;20135;-71
2022/08/06 06:00:38;;;;;;;9.15;4.57;;;;;;;25.14;54.53;98507.94;4483094;32;20108;-70
2022/08/06 06:03:13;;;;;;;11.50;4.85;;;;;;;25.16;54.44;98513.84;4483203;32;20108;-71
2022/08/06 06:05:59;;;;;;;12.35;5.12;;;;;;;25.14;54.63;98510.59;4476655;32;20119;-71
2022/08/06 06:08:43;;;;;;;5.78;4.53;;;;;;;25.37;54.22;98514.28;4467910;32;20131;-71
2022/08/06 06:11:26;;;;;;;4.97;4.40;;;;;;;25.49;54.21;98518.53;4468654;32;20167;-71
2022/08/06 06:14:34;;;;;;;6.15;4.47;;;;;;;25.46;53.22;98523.56;4467595;32;20115;-71
2022/08/06 06:17:13;;;;;;;5.90;4.78;;;;;;;25.70;52.15;98523.47;4468753;32;20521;-70
2022/08/06 06:20:19;;;;;;;5.85;4.43;;;;;;;25.76;51.61;98528.66;4468617;32;20085;-70
2022/08/06 06:23:08;;;;;;;8.20;4.60;;;;;;;25.82;51.38;98518.84;4467354;32;20143;-71
2022/08/06 06:26:03;;;;;;;8.77;4.10;;;;;;;25.85;50.60;98521.03;4468400;32;20088;-71
2022/08/06 06:28:39;;;;;;;6.10;4.43;;;;;;;26.01;49.44;98520.25;4467201;32;20085;-71
2022/08/06 06:31:22;;;;;;;9.75;4.70;;;;;;;26.05;48.60;98523.25;4466874;32;20089;-71
2022/08/06 06:34:18;;;;;;;4.97;4.47;;;;;;;26.17;48.05;98528.56;4468343;32;20126;-71
2022/08/06 06:36:59;;;;;;;6.07;3.92;;;;;;;26.16;47.12;98540.34;4472510;32;20183;-71
2022/08/06 06:39:55;;;;;;;4.93;3.85;;;;;;;26.37;45.39;98536.94;4483889;31;20137;-71
2022/08/06 06:42:31;;;;;;;6.80;4.00;;;;;;;26.50;44.90;98534.97;4482722;32;20076;-71
2022/08/06 06:45:18;;;;;;;9.45;4.53;;;;;;;26.72;44.55;98535.00;4484632;32;20122;-71
2022/08/06 06:48:37;;;;;;;5.62;3.83;;;;;;;26.84;43.84;98534.88;4485219;32;20134;-71
2022/08/06 06:51:09;;;;;;;6.85;4.32;;;;;;;26.71;43.56;98538.78;4486127;31;20115;-71
2022/08/06 06:53:57;;;;;;;6.97;4.62;;;;;;;26.72;43.77;98548.44;4486238;31;20127;-71
2022/08/06 06:56:39;;;;;;;8.32;4.43;;;;;;;26.64;43.70;98533.53;4486104;31;20353;-71
2022/08/06 06:59:13;;;;;;;16.58;4.70;;;;;;;26.74;43.97;98527.53;4484744;32;20088;-71
2022/08/06 07:01:45;;;;;;;10.68;4.32;;;;;;;26.74;43.93;98541.75;4484427;32;20089;-71
2022/08/06 07:04:23;;;;;;;6.78;4.18;;;;;;;26.73;44.09;98542.00;4484844;32;20217;-71
2022/08/06 07:06:55;;;;;;;9.43;4.53;;;;;;;26.89;44.10;98535.78;4471638;32;20454;-71
2022/08/06 07:09:25;;;;;;;6.00;4.78;;;;;;;27.06;44.02;98543.78;4470311;32;20088;-71
2022/08/06 07:12:14;;;;;;;5.10;4.60;;;;;;;26.85;44.40;98534.62;4470231;32;20097;-71
2022/08/06 07:14:54;;;;;;;15.35;5.25;;;;;;;26.84;44.82;98533.00;4470173;32;20434;-71
2022/08/06 07:17:33;;;;;;;5.70;5.15;;;;;;;27.12;44.74;98544.66;4470040;32;20092;-71
2022/08/06 07:20:19;;;;;;;4.82;4.32;;;;;;;27.26;44.38;98539.69;4468951;32;20111;-71
2022/08/06 07:22:54;;;;;;;7.90;4.30;;;;;;;27.43;43.86;98545.84;4470102;32;20529;-71
2022/08/06 07:25:45;;;;;;;9.77;4.47;;;;;;;27.51;43.13;98546.44;4469021;32;20103;-71
2022/08/06 07:28:25;;;;;;;11.38;4.72;;;;;;;27.50;43.02;98555.59;4468892;32;20158;-71
2022/08/06 07:30:57;;;;;;;5.78;4.47;;;;;;;27.39;42.91;98554.66;4468620;32;20100;-71
2022/08/06 07:33:34;;;;;;;4.70;4.18;;;;;;;27.66;42.70;98552.00;4469890;32;20077;-71
2022/08/06 07:36:24;;;;;;;7.43;4.80;;;;;;;27.69;42.66;98564.12;4472375;32;20115;-71
2022/08/06 07:38:56;;;;;;;7.25;4.60;;;;;;;27.66;42.95;98557.38;4484323;32;20096;-71
2022/08/06 07:41:26;;;;;;;5.32;4.60;;;;;;;27.48;43.70;98569.31;4484420;32;20122;-71
2022/08/06 07:44:13;;;;;;;6.37;4.75;;;;;;;27.75;43.39;98555.03;4484810;32;20114;-71
2022/08/06 07:46:54;;;;;;;5.97;4.12;;;;;;;27.76;42.60;98570.91;4484351;32;20294;-71
2022/08/06 07:49:24;;;;;;;11.02;5.05;;;;;;;27.59;42.99;98575.59;4484248;32;20118;-71
2022/08/06 07:52:13;;;;;;;5.32;4.80;;;;;;;27.85;42.91;98562.41;4485587;31;20088;-71
2022/08/06 07:54:44;;;;;;;6.33;4.70;;;;;;;28.20;42.67;98567.28;4484278;32;20096;-71
2022/08/06 07:57:12;;;;;;;6.12;4.95;;;;;;;28.25;41.77;98564.66;4485963;31;20199;-71
2022/08/06 07:59:41;;;;;;;7.43;4.85;;;;;;;28.37;41.91;98574.41;4484097;32;20100;-71
2022/08/06 08:02:11;;;;;;;7.65;4.87;;;;;;;28.24;42.24;98571.09;4485302;31;20118;-71
2022/08/06 08:07:28;;;;;;;8.68;5.22;;;;;;;28.15;42.38;98562.69;4469821;32;20081;-71
2022/08/06 08:10:17;;;;;;;5.22;4.45;;;;;;;28.26;42.56;98566.25;4469755;32;20081;-71
2022/08/06 08:12:44;;;;;;;6.40;4.72;;;;;;;28.32;41.76;98561.72;4469834;32;20092;-71
2022/08/06 08:15:18;;;;;;;8.57;4.97;;;;;;;28.56;41.38;98561.34;4469630;32;20108;-71
2022/08/06 08:17:49;;;;;;;5.78;5.15;;;;;;;28.50;41.05;98563.19;4469741;32;20102;-71
2022/08/06 08:20:27;;;;;;;6.87;4.90;;;;;;;28.75;41.11;98572.53;4469613;32;20101;-71
2022/08/06 08:23:05;;;;;;;7.95;4.57;;;;;;;28.74;41.51;98566.34;4468541;32;20645;-71
2022/08/06 08:25:33;;;;;;;;;;;;;;;29.14;41.05;98556.81;4468718;32;20116;-71
2022/08/06 08:28:12;;;;;;;5.90;4.57;;;;;;;29.41;39.69;98565.84;4469718;32;20411;-71
2022/08/06 08:30:44;;;;;;;8.63;4.85;;;;;;;29.67;39.18;98569.41;4469457;32;20088;-71
2022/08/06 08:33:20;;;;;;;6.37;5.28;;;;;;;29.76;39.08;98573.19;4469716;32;20152;-71
2022/08/06 08:35:48;;;;;;;6.75;4.43;;;;;;;29.48;39.09;98575.31;4469547;32;20442;-71
2022/08/06 08:38:31;;;;;;;5.85;4.65;;;;;;;29.60;39.59;98572.38;4469470;32;20440;-71
2022/08/06 08:41:11;;;;;;;5.37;4.78;;;;;;;29.83;39.00;98575.69;4469552;32;20421;-71
2022/08/06 08:43:44;;;;;;;5.00;4.35;;;;;;;29.79;39.31;98572.66;4468562;32;20143;-71
2022/08/06 08:46:34;;;;;;;7.05;4.70;;;;;;;29.96;38.18;98571.62;4469552;32;20483;-71
2022/08/06 08:49:38;;;;;;;5.40;4.65;;;;;;;29.96;38.73;98583.22;4469626;32;20097;-71
2022/08/06 08:52:16;;;;;;;6.07;4.55;;;;;;;29.97;38.27;98576.75;4469460;32;20092;-71
2022/08/06 08:54:51;;;;;;;5.47;4.57;;;;;;;30.00;38.55;98578.13;4469504;32;20131;-71
2022/08/06 08:57:21;;;;;;;7.75;4.47;;;;;;;30.18;38.16;98574.88;4469406;32;20093;-71
2022/08/06 09:00:08;;;;;;;4.75;4.32;;;;;;;30.35;37.58;98581.91;4468225;32;20149;-71
2022/08/06 09:02:38;;;;;;;7.47;4.43;;;;;;;30.37;37.47;98580.56;4469438;32;20092;-71
2022/08/06 09:05:16;;;;;;;5.40;4.40;;;;;;;30.42;36.98;98583.25;4471975;32;20119;-71
2022/08/06 09:07:44;;;;;;;5.45;4.25;;;;;;;30.73;35.96;98580.50;4470258;32;20398;-71
2022/08/06 09:10:28;;;;;;;7.40;4.53;;;;;;;30.76;35.59;98581.84;4485072;31;20137;-71
2022/08/06 09:13:03;;;;;;;4.70;4.05;;;;;;;30.74;35.48;98576.72;4485238;31;20088;-71
2022/08/06 09:15:51;;;;;;;7.12;4.50;;;;;;;30.71;35.52;98595.41;4483947;32;20084;-71
2022/08/06 09:18:22;;;;;;;5.00;4.47;;;;;;;30.85;36.09;98584.81;4485111;31;20107;-71
2022/08/06 09:20:54;;;;;;;5.93;4.20;;;;;;;31.14;35.27;98588.53;4484898;31;20122;-71
2022/08/06 09:23:24;;;;;;;4.10;3.70;;;;;;;31.25;35.01;98594.72;4485157;31;20191;-71
2022/08/06 09:25:55;;;;;;;4.90;4.40;;;;;;;31.51;34.11;98594.59;4484965;31;20147;-71
2022/08/06 09:28:37;;;;;;;6.72;4.65;;;;;;;31.40;34.48;98585.72;4485041;31;20110;-71
2022/08/06 09:31:07;;;;;;;4.78;4.18;;;;;;;31.67;34.41;98589.91;4484663;31;20141;-71
2022/08/06 09:33:57;;;;;;;6.20;4.22;;;;;;;31.61;33.86;98582.91;4484972;31;20146;-71
2022/08/06 09:36:46;;;;;;;7.65;4.30;;;;;;;31.64;34.28;98585.03;4484773;32;20405;-71
2022/08/06 09:39:13;;;;;;;6.03;3.80;;;;;;;31.60;34.15;98581.28;4484786;32;20092;-71
2022/08/06 09:41:51;;;;;;;9.18;4.53;;;;;;;31.72;33.11;98592.59;4484945;31;20140;-71
2022/08/06 09:44:19;;;;;;;7.57;4.22;;;;;;;31.73;33.51;98596.09;4484907;31;20122;-71
2022/08/06 09:47:04;;;;;;;4.85;4.32;;;;;;;31.90;33.50;98590.28;4484766;31;20168;-71
2022/08/06 09:49:45;;;;;;;5.95;4.72;;;;;;;32.13;32.80;98580.66;4484760;32;20129;-71
2022/08/06 09:52:26;;;;;;;;;;;;;;;32.21;32.66;98580.06;4484967;31;20099;-71
2022/08/06 09:54:54;;;;;;;4.75;4.15;;;;;;;32.10;32.62;98584.75;4484716;31;19972;-71
2022/08/06 09:57:25;;;;;;;9.52;4.75;;;;;;;31.98;32.33;98595.91;4484489;31;20092;-71
2022/08/06 10:00:01;;;;;;;4.75;4.22;;;;;;;32.09;32.49;98583.09;4483340;32;20088;-71
2022/08/06 10:02:34;;;;;;;4.53;4.10;;;;;;;32.47;32.58;98585.25;4484295;31;20085;-71
2022/08/06 10:05:09;;;;;;;5.60;5.00;;;;;;;32.55;32.86;98587.31;4484756;31;20417;-71
2022/08/06 10:07:47;;;;;;;7.43;4.97;;;;;;;32.56;34.04;98588.94;4483301;32;20084;-71
2022/08/06 10:10:38;;;;;;;8.35;4.40;;;;;;;32.63;33.50;98586.72;4484451;31;20437;-72
2022/08/06 10:13:16;;;;;;;7.43;4.72;;;;;;;32.65;34.17;98581.84;4484638;31;20073;-71
2022/08/06 10:15:48;;;;;;;6.85;4.50;;;;;;;32.52;33.73;98586.00;4484420;31;20093;-71
2022/08/06 10:18:39;;;;;;;5.82;4.50;;;;;;;32.78;33.99;98582.25;4484868;31;20076;-71
2022/08/06 10:21:29;;;;;;;7.22;4.78;;;;;;;32.66;34.09;98580.75;4486225;31;20099;-71
2022/08/06 10:24:14;;;;;;;6.53;4.85;;;;;;;32.55;34.30;98580.00;4486414;31;20680;-71
2022/08/06 10:27:06;;;;;;;4.78;4.28;;;;;;;32.77;34.29;98586.06;4485287;32;20089;-71
2022/08/06 10:29:45;;;;;;;5.95;4.60;;;;;;;32.78;33.39;98577.63;4486191;32;20114;-71
2022/08/06 10:32:16;;;;;;;5.78;4.22;;;;;;;32.93;33.39;98590.22;4486120;31;20092;-71
2022/08/06 10:34:44;;;;;;;6.47;4.60;;;;;;;32.86;33.46;98584.34;4485125;32;20084;-71
2022/08/06 10:37:13;;;;;;;5.65;4.78;;;;;;;33.02;33.20;98574.91;4484988;32;20166;-71
2022/08/06 10:40:05;;;;;;;8.55;4.62;;;;;;;33.28;32.93;98574.63;4485055;32;20118;-71
2022/08/06 10:42:38;;;;;;;5.55;5.03;;;;;;;33.14;33.13;98570.97;4486271;31;20084;-72
2022/08/06 10:45:11;;;;;;;5.87;4.55;;;;;;;33.14;32.89;98574.47;4485887;31;20516;-71
2022/08/06 10:47:44;;;;;;;5.57;4.80;;;;;;;33.15;32.86;98578.81;4486054;32;20101;-71
2022/08/06 10:50:32;;;;;;;6.22;5.20;;;;;;;33.27;32.84;98581.16;4486097;31;20107;-71
2022/08/06 10:53:18;;;;;;;9.15;4.62;;;;;;;33.41;32.21;98573.09;4485039;32;20092;-71
2022/08/06 10:56:08;;;;;;;6.15;4.80;;;;;;;33.48;32.57;98573.53;4486121;32;20076;-71
2022/08/06 10:58:36;;;;;;;6.62;4.18;;;;;;;33.57;32.41;98581.84;4485981;31;20096;-72
2022/08/06 11:01:24;;;;;;;7.97;5.57;;;;;;;33.55;31.73;98584.03;4485771;32;20108;-71
2022/08/06 11:04:29;;;;;;;8.57;5.28;;;;;;;33.22;33.48;98578.50;4485057;32;20427;-71
2022/08/06 11:07:26;;;;;;;5.70;4.60;;;;;;;33.61;32.96;98582.84;4486291;31;20446;-71
2022/08/06 11:10:50;;;;;;;7.00;5.22;;;;;;;33.72;33.14;98572.62;4421309;32;20543;-71
2022/08/06 11:13:23;;;;;;;7.62;5.30;;;;;;;33.67;33.52;98568.09;4421468;32;20102;-71
2022/08/06 11:16:25;;;;;;;6.20;5.25;;;;;;;33.45;33.73;98565.16;4421320;32;20228;-71
2022/08/06 11:19:10;;;;;;;5.97;5.37;;;;;;;33.68;33.48;98561.56;4421361;32;20081;-72
2022/08/06 11:21:40;;;;;;;;;;;;;;;33.68;33.30;98561.56;4421574;32;20101;-72
2022/08/06 11:24:27;;;;;;;7.85;4.95;;;;;;;33.58;33.86;98572.56;4421424;32;20612;-71
2022/08/06 11:26:55;;;;;;;11.02;5.18;;;;;;;33.50;33.79;98559.66;4408617;32;20093;-71
2022/08/06 11:30:11;;;;;;;8.68;5.40;;;;;;;33.61;33.85;98563.84;4420746;32;20152;-71
2022/08/06 11:32:50;;;;;;;10.98;5.25;;;;;;;33.52;33.85;98552.00;4420944;32;20101;-71
2022/08/06 11:35:32;;;;;;;9.07;5.30;;;;;;;33.50;34.00;98555.03;4418207;32;20106;-71
2022/08/06 11:38:42;;;;;;;7.70;5.35;;;;;;;33.38;33.85;98558.19;4420741;32;20085;-71
2022/08/06 11:41:22;;;;;;;6.10;5.50;;;;;;;33.77;33.77;98554.38;4421078;32;20187;-71
2022/08/06 11:44:12;;;;;;;6.62;5.15;;;;;;;33.85;33.75;98554.81;4421153;32;20304;-71
2022/08/06 11:46:45;;;;;;;10.43;5.43;;;;;;;33.63;34.14;98553.50;4442864;32;20136;-71
2022/08/06 11:49:14;;;;;;;6.65;5.68;;;;;;;33.69;33.90;98546.88;4485661;31;20144;-71
2022/08/06 11:51:54;;;;;;;8.35;5.45;;;;;;;33.44;34.57;98561.63;4485663;31;20098;-72
2022/08/06 11:54:59;;;;;;;10.52;5.57;;;;;;;33.49;34.81;98561.59;4485509;31;20131;-71
2022/08/06 11:57:27;;;;;;;7.82;5.25;;;;;;;33.58;34.61;98558.97;4485887;31;20418;-71
2022/08/06 12:00:15;;;;;;;10.55;6.00;;;;;;;33.53;34.63;98553.63;4485679;31;20145;-71
2022/08/06 12:02:47;;;;;;;10.68;6.05;;;;;;;33.67;34.63;98554.50;4485520;31;20475;-71
2022/08/06 12:05:19;;;;;;;12.05;5.72;;;;;;;33.23;35.31;98561.09;4485421;31;20446;-72
2022/08/06 12:08:14;;;;;;;8.50;5.95;;;;;;;33.60;35.13;98556.81;4485594;31;20092;-71
2022/08/06 12:11:21;;;;;;;10.02;6.20;;;;;;;33.49;34.72;98568.91;4485579;31;20088;-71
2022/08/06 12:13:51;;;;;;;8.20;5.78;;;;;;;33.53;35.06;98569.94;4485498;31;20122;-71
2022/08/06 12:16:29;;;;;;;8.63;6.15;;;;;;;33.52;35.05;98562.88;4485567;32;20080;-71
2022/08/06 12:18:57;;;;;;;6.32;5.70;;;;;;;33.44;35.41;98561.63;4485464;31;20458;-71
2022/08/06 12:21:24;;;;;;;10.63;6.20;;;;;;;33.00;35.93;98568.16;4485262;31;20154;-71
2022/08/06 12:24:04;;;;;;;7.03;6.15;;;;;;;32.88;36.15;98565.84;4485445;31;20089;-71
2022/08/06 12:26:34;;;;;;;11.43;6.28;;;;;;;32.81;36.46;98568.09;4485572;31;20442;-71
2022/08/06 12:29:04;;;;;;;6.75;5.97;;;;;;;32.60;37.05;98571.00;4485213;31;20143;-71
2022/08/06 12:31:35;;;;;;;7.30;5.60;;;;;;;32.79;36.50;98568.37;4485254;31;20103;-71